CheckWX is a tool to help pilots better visualize weather data.  It is not intended as a substitute for an official pre-flight weather briefing.

10:21:26 UTC

CYOY METAR
C J.H.L.(Joe) Lecomte) Heliport
Valcartier, Canada
Current

21 mins ago

CYOY 311000Z AUTO 30009KT 9SM BKN061 04/01 A2993 RMK SLP139
Observed
May-31 @ 10:00 UTC
Wind
  • 300° at 9 KTS
Visibility
Flight Rules
VFR
Cloud Levels
  • Broken at 6,100' AGL
Temperature
C / 39°F
Dewpoint
C / 34°F
Humidity
81%
Altimeter
29.93" Hg
Pressure
1013.52 hPa
Previous

1 hour ago

CYOY 310900Z AUTO 33008KT 270V340 9SM FEW026 FEW045 FEW066 05/01 A2990 RMK SLP129
Observed
May-31 @ 09:00 UTC
Wind
  • 330° at 8 KTS
Visibility
Flight Rules
VFR
Cloud Levels
  • Few at 2,600' AGL
  • Few at 4,500' AGL
  • Few at 6,600' AGL
Temperature
C / 41°F
Dewpoint
C / 34°F
Humidity
76%
Altimeter
29.9" Hg
Pressure
1012.52 hPa
Previous

2 hours ago

CYOY 310800Z AUTO 32005KT 260V340 9SM FEW024 OVC039 05/01 A2986 RMK SLP118
Observed
May-31 @ 08:00 UTC
Wind
  • 320° at 5 KTS
Visibility
Flight Rules
VFR
Cloud Levels
  • Few at 2,400' AGL
  • Overcast at 3,900' AGL
Temperature
C / 41°F
Dewpoint
C / 34°F
Humidity
76%
Altimeter
29.86" Hg
Pressure
1011.22 hPa